createdAt,value
2023-01-06T00:00:12.692Z,7.90
2023-01-06T00:01:15.183Z,7.40
2023-01-06T00:02:16.511Z,4.97
2023-01-06T00:03:17.967Z,4.67
2023-01-06T00:04:19.411Z,5.13
2023-01-06T00:05:21.208Z,6.33
2023-01-06T00:06:27.614Z,6.53
2023-01-06T00:07:29.681Z,5.53
2023-01-06T00:08:31.528Z,5.67
2023-01-06T00:09:34.561Z,6.20
2023-01-06T00:10:36.375Z,6.33
2023-01-06T00:11:37.782Z,5.47
2023-01-06T00:12:39.213Z,6.43
2023-01-06T00:13:41.205Z,4.17
2023-01-06T00:14:44.112Z,4.70
2023-01-06T00:15:45.519Z,7.23
2023-01-06T00:16:46.902Z,4.47
2023-01-06T00:17:48.325Z,4.67
2023-01-06T00:18:49.747Z,6.47
2023-01-06T00:19:51.730Z,5.43
2023-01-06T00:20:53.043Z,6.13
2023-01-06T00:21:54.429Z,4.77
2023-01-06T00:22:55.835Z,4.93
2023-01-06T00:23:57.341Z,6.37
2023-01-06T00:24:58.935Z,4.90
2023-01-06T00:26:00.615Z,4.43
2023-01-06T00:27:01.975Z,6.43
2023-01-06T00:28:03.520Z,4.77
2023-01-06T00:29:05.022Z,5.33
2023-01-06T00:30:07.054Z,5.83
2023-01-06T00:31:17.471Z,4.63
2023-01-06T00:32:19.060Z,5.13
2023-01-06T00:33:20.575Z,5.60
2023-01-06T00:34:21.936Z,6.33
2023-01-06T00:35:23.270Z,5.30
2023-01-06T00:36:25.229Z,5.60
2023-01-06T00:37:26.745Z,5.43
2023-01-06T00:38:28.179Z,4.53
2023-01-06T00:39:30.391Z,5.97
2023-01-06T00:40:31.772Z,4.23
2023-01-06T00:41:52.759Z,4.50
2023-01-06T00:42:54.128Z,5.87
2023-01-06T00:43:56.353Z,6.70
2023-01-06T00:44:57.714Z,4.17
2023-01-06T00:46:02.399Z,4.60
2023-01-06T00:47:04.956Z,5.27
2023-01-06T00:48:06.271Z,5.80
2023-01-06T00:49:11.411Z,5.77
2023-01-06T00:50:13.463Z,6.60
2023-01-06T00:51:14.898Z,5.43
2023-01-06T00:52:16.287Z,5.77
2023-01-06T00:53:17.645Z,3.27
2023-01-06T00:54:19.387Z,4.93
2023-01-06T00:55:21.951Z,5.53
2023-01-06T00:56:23.261Z,3.80
2023-01-06T00:57:24.755Z,3.30
2023-01-06T00:58:29.279Z,3.17
2023-01-06T00:59:30.602Z,5.20
2023-01-06T01:00:31.974Z,4.67
2023-01-06T01:01:34.676Z,4.90
2023-01-06T01:02:36.490Z,3.70
2023-01-06T01:03:38.411Z,4.63
2023-01-06T01:04:39.810Z,4.90
2023-01-06T01:05:41.170Z,4.10
2023-01-06T01:06:43.701Z,3.37
2023-01-06T01:07:45.557Z,3.97
2023-01-06T01:08:48.089Z,3.70
2023-01-06T01:09:49.583Z,3.03
2023-01-06T01:10:50.999Z,6.40
2023-01-06T01:12:10.545Z,3.80
2023-01-06T01:13:11.868Z,4.87
2023-01-06T01:14:14.411Z,3.60
2023-01-06T01:15:15.786Z,4.23
2023-01-06T01:16:17.088Z,4.77
2023-01-06T01:17:19.871Z,3.67
2023-01-06T01:18:21.222Z,7.07
2023-01-06T01:19:23.409Z,5.77
2023-01-06T01:20:24.821Z,3.70
2023-01-06T01:21:26.204Z,5.33
2023-01-06T01:22:28.418Z,4.40
2023-01-06T01:23:29.743Z,4.80
2023-01-06T01:24:31.074Z,4.73
2023-01-06T01:25:32.406Z,3.87
2023-01-06T01:26:33.809Z,5.23
2023-01-06T01:27:35.158Z,5.37
2023-01-06T01:28:36.463Z,4.70
2023-01-06T01:29:37.834Z,4.93
2023-01-06T01:30:39.143Z,6.60
2023-01-06T01:31:40.743Z,4.50
2023-01-06T01:32:42.267Z,3.83
2023-01-06T01:33:50.429Z,4.30
2023-01-06T01:34:51.929Z,6.50
2023-01-06T01:35:54.216Z,4.87
2023-01-06T01:36:56.567Z,4.90
2023-01-06T01:37:57.928Z,3.37
2023-01-06T01:38:59.872Z,5.03
2023-01-06T01:40:01.272Z,4.87
2023-01-06T01:41:03.223Z,6.63
2023-01-06T01:42:06.296Z,3.37
2023-01-06T01:43:09.350Z,3.37
2023-01-06T01:44:29.513Z,4.63
2023-01-06T01:45:30.859Z,5.53
2023-01-06T01:46:40.792Z,4.10
2023-01-06T01:47:44.725Z,4.17
2023-01-06T01:48:46.663Z,6.00
2023-01-06T01:49:49.055Z,10.97
2023-01-06T01:50:52.450Z,3.60
2023-01-06T01:51:55.871Z,4.83
2023-01-06T01:53:00.861Z,6.27
2023-01-06T01:54:05.043Z,4.53
2023-01-06T01:55:07.297Z,6.47
2023-01-06T01:56:11.012Z,5.40
2023-01-06T01:57:16.134Z,5.67
2023-01-06T01:58:20.560Z,4.00
2023-01-06T01:59:24.193Z,3.87
2023-01-06T02:00:25.540Z,4.10
2023-01-06T02:01:27.350Z,4.50
2023-01-06T02:02:30.526Z,3.67
2023-01-06T02:03:31.949Z,5.07
2023-01-06T02:04:35.456Z,5.67
2023-01-06T02:05:42.520Z,4.93
2023-01-06T02:06:46.049Z,4.70
2023-01-06T02:07:47.683Z,4.97
2023-01-06T02:08:55.244Z,6.33
2023-01-06T02:10:00.260Z,4.17
2023-01-06T02:11:02.211Z,3.17
2023-01-06T02:12:03.915Z,3.83
2023-01-06T02:13:05.283Z,6.30
2023-01-06T02:14:11.589Z,4.43
2023-01-06T02:15:17.100Z,3.50
2023-01-06T02:16:44.422Z,4.87
2023-01-06T02:17:56.002Z,6.33
2023-01-06T02:19:21.215Z,5.47
2023-01-06T02:20:27.360Z,4.57
2023-01-06T02:21:55.233Z,4.73
2023-01-06T02:23:17.568Z,5.07
2023-01-06T02:24:48.001Z,4.30
2023-01-06T02:26:08.471Z,2.90
2023-01-06T02:27:33.138Z,6.10
2023-01-06T02:28:57.350Z,3.07
2023-01-06T02:30:37.677Z,3.60
2023-01-06T02:31:44.464Z,4.70
2023-01-06T02:32:51.211Z,3.57
2023-01-06T02:33:57.001Z,3.20
2023-01-06T02:35:06.904Z,5.83
2023-01-06T02:36:08.927Z,3.27
2023-01-06T02:37:13.015Z,3.60
2023-01-06T02:38:28.333Z,5.40
2023-01-06T02:39:48.289Z,4.73
2023-01-06T02:40:55.246Z,4.07
2023-01-06T02:42:14.636Z,3.83
2023-01-06T02:43:25.813Z,5.37
2023-01-06T02:44:40.620Z,3.73
2023-01-06T02:45:55.854Z,3.93
2023-01-06T02:47:35.879Z,5.10
2023-01-06T02:48:54.007Z,4.93
2023-01-06T02:50:03.840Z,4.80
2023-01-06T02:51:10.175Z,4.20
2023-01-06T02:52:30.158Z,4.77
2023-01-06T02:53:40.986Z,5.37
2023-01-06T02:55:05.163Z,5.97
2023-01-06T02:56:06.930Z,6.13
2023-01-06T02:57:16.650Z,4.50
2023-01-06T02:58:21.698Z,6.00
2023-01-06T02:59:26.712Z,5.03
2023-01-06T03:00:34.650Z,5.87
2023-01-06T03:01:41.323Z,3.70
2023-01-06T03:02:45.476Z,4.97
2023-01-06T03:03:48.347Z,7.10
2023-01-06T03:04:51.963Z,6.23
2023-01-06T03:05:59.191Z,4.57
2023-01-06T03:07:02.412Z,3.33
2023-01-06T03:08:10.489Z,5.90
2023-01-06T03:09:15.202Z,5.03
2023-01-06T03:10:20.041Z,5.37
2023-01-06T03:11:22.012Z,4.30
2023-01-06T03:12:33.271Z,4.83
2023-01-06T03:13:48.899Z,5.37
2023-01-06T03:14:52.838Z,4.70
2023-01-06T03:15:54.502Z,7.53
2023-01-06T03:16:56.542Z,4.73
2023-01-06T03:17:57.948Z,4.17
2023-01-06T03:18:59.259Z,5.40
2023-01-06T03:20:02.468Z,4.43
2023-01-06T03:21:10.075Z,4.67
2023-01-06T03:22:12.136Z,4.00
2023-01-06T03:23:14.303Z,5.23
2023-01-06T03:24:15.665Z,4.17
2023-01-06T03:25:17.733Z,4.30
2023-01-06T03:26:19.325Z,4.77
2023-01-06T03:27:22.811Z,4.67
2023-01-06T03:28:24.375Z,5.63
2023-01-06T03:29:26.044Z,4.27
2023-01-06T03:30:33.911Z,6.10
2023-01-06T03:31:35.604Z,4.83
2023-01-06T03:32:46.006Z,5.37
2023-01-06T03:34:06.238Z,4.93
2023-01-06T03:35:23.670Z,3.83
2023-01-06T03:36:40.831Z,5.27
2023-01-06T03:37:48.256Z,4.50
2023-01-06T03:38:56.288Z,4.00
2023-01-06T03:40:09.299Z,5.80
2023-01-06T03:41:53.462Z,3.63
2023-01-06T03:43:14.043Z,5.87
2023-01-06T03:44:44.892Z,6.77
2023-01-06T03:45:52.255Z,4.30
2023-01-06T03:47:00.418Z,3.90
2023-01-06T03:48:20.348Z,4.07
2023-01-06T03:49:32.631Z,4.00
2023-01-06T03:50:37.197Z,3.23
2023-01-06T03:51:47.758Z,4.63
2023-01-06T03:52:55.801Z,4.20
2023-01-06T03:54:03.395Z,4.23
2023-01-06T03:55:07.654Z,4.57
2023-01-06T03:56:16.540Z,4.07
2023-01-06T03:57:23.076Z,5.10
2023-01-06T03:58:26.973Z,4.73
2023-01-06T03:59:30.178Z,4.33
2023-01-06T04:00:35.937Z,4.33
2023-01-06T04:01:43.333Z,3.90
2023-01-06T04:02:45.525Z,4.70
2023-01-06T04:03:54.339Z,3.20
2023-01-06T04:05:23.274Z,3.37
2023-01-06T04:06:25.732Z,4.87
2023-01-06T04:07:27.505Z,4.67
2023-01-06T04:08:28.939Z,4.33
2023-01-06T04:09:31.188Z,4.07
2023-01-06T04:10:32.641Z,4.17
2023-01-06T04:11:52.790Z,5.33
2023-01-06T04:12:54.470Z,5.77
2023-01-06T04:14:00.661Z,3.53
2023-01-06T04:15:02.985Z,4.97
2023-01-06T04:16:04.579Z,3.40
2023-01-06T04:17:06.996Z,4.10
2023-01-06T04:18:08.879Z,3.30
2023-01-06T04:19:13.107Z,3.37
2023-01-06T04:20:16.103Z,5.33
2023-01-06T04:21:18.020Z,4.43
2023-01-06T04:22:19.326Z,3.87
2023-01-06T04:23:20.669Z,3.47
2023-01-06T04:24:22.007Z,3.80
2023-01-06T04:25:23.947Z,4.23
2023-01-06T04:26:25.278Z,4.40
2023-01-06T04:27:27.007Z,3.87
2023-01-06T04:28:28.368Z,4.13
2023-01-06T04:29:29.833Z,4.73
2023-01-06T04:30:31.839Z,3.90
2023-01-06T04:31:35.406Z,4.47
2023-01-06T04:32:37.097Z,3.60
2023-01-06T04:33:41.093Z,4.40
2023-01-06T04:34:44.818Z,4.13
2023-01-06T04:35:47.659Z,3.43
2023-01-06T04:36:51.688Z,4.77
2023-01-06T04:37:53.255Z,3.90
2023-01-06T04:38:54.669Z,4.93
2023-01-06T04:39:56.068Z,3.10
2023-01-06T04:40:57.374Z,4.40
2023-01-06T04:41:58.829Z,8.43
2023-01-06T04:43:06.436Z,3.07
2023-01-06T04:44:07.805Z,4.53
2023-01-06T04:45:09.424Z,3.03
2023-01-06T04:46:10.872Z,4.90
2023-01-06T04:47:12.252Z,5.47
2023-01-06T04:48:14.007Z,3.20
2023-01-06T04:49:15.305Z,3.00
2023-01-06T04:50:17.107Z,3.63
2023-01-06T04:51:18.586Z,4.10
2023-01-06T04:52:19.954Z,3.03
2023-01-06T04:53:21.276Z,3.33
2023-01-06T04:54:22.590Z,3.30
2023-01-06T04:55:24.080Z,3.87
2023-01-06T04:56:26.907Z,2.73
2023-01-06T04:57:28.782Z,2.60
2023-01-06T04:58:30.177Z,2.40
2023-01-06T04:59:31.558Z,2.90
2023-01-06T05:00:33.018Z,2.10
2023-01-06T05:01:34.469Z,2.53
2023-01-06T05:02:35.891Z,3.10
2023-01-06T05:03:37.491Z,3.67
2023-01-06T05:04:47.457Z,3.20
2023-01-06T05:05:49.191Z,5.40
2023-01-06T05:06:50.607Z,2.10
2023-01-06T05:07:55.090Z,2.83
2023-01-06T05:08:56.464Z,3.70
2023-01-06T05:09:57.841Z,3.70
2023-01-06T05:11:03.497Z,3.50
2023-01-06T05:12:04.958Z,4.17
2023-01-06T05:13:06.273Z,2.80
2023-01-06T05:14:07.596Z,3.17
2023-01-06T05:15:09.261Z,3.30
2023-01-06T05:16:12.355Z,2.60
2023-01-06T05:17:13.738Z,2.40
2023-01-06T05:18:15.049Z,3.07
2023-01-06T05:19:16.390Z,3.87
2023-01-06T05:20:17.734Z,2.30
2023-01-06T05:21:19.182Z,2.90
2023-01-06T05:22:20.937Z,2.63
2023-01-06T05:23:22.297Z,3.87
2023-01-06T05:24:23.619Z,2.70
2023-01-06T05:25:24.950Z,3.53
2023-01-06T05:26:27.515Z,2.33
2023-01-06T05:27:29.000Z,2.47
2023-01-06T05:28:30.358Z,2.70
2023-01-06T05:29:31.794Z,3.83
2023-01-06T05:30:33.152Z,3.70
2023-01-06T05:31:34.469Z,2.50
2023-01-06T05:32:35.869Z,2.67
2023-01-06T05:33:37.355Z,2.97
2023-01-06T05:34:38.728Z,5.23
2023-01-06T05:35:40.047Z,2.93
2023-01-06T05:36:41.351Z,4.23
2023-01-06T05:37:42.718Z,3.90
2023-01-06T05:38:44.148Z,2.87
2023-01-06T05:39:45.439Z,2.57
2023-01-06T05:40:50.570Z,2.20
2023-01-06T05:41:51.959Z,3.30
2023-01-06T05:42:54.468Z,3.00
2023-01-06T05:43:56.727Z,2.47
2023-01-06T05:44:58.041Z,1.83
2023-01-06T05:46:00.497Z,3.93
2023-01-06T05:47:01.862Z,3.53
2023-01-06T05:48:03.293Z,3.33
2023-01-06T05:49:04.980Z,2.97
2023-01-06T05:50:06.610Z,3.10
2023-01-06T05:51:09.355Z,6.40
2023-01-06T05:52:10.698Z,4.63
2023-01-06T05:53:12.042Z,3.40
2023-01-06T05:54:18.350Z,2.93
2023-01-06T05:55:22.616Z,3.27
2023-01-06T05:56:27.111Z,2.33
2023-01-06T05:57:28.469Z,2.23
2023-01-06T05:58:29.826Z,2.43
2023-01-06T05:59:31.180Z,2.83
2023-01-06T06:00:32.514Z,2.73
2023-01-06T06:01:33.963Z,3.87
2023-01-06T06:02:35.300Z,2.50
2023-01-06T06:03:36.682Z,3.67
2023-01-06T06:04:38.054Z,2.93
2023-01-06T06:05:39.372Z,3.53
2023-01-06T06:06:40.694Z,3.93
2023-01-06T06:07:42.003Z,3.63
2023-01-06T06:08:43.341Z,2.97
2023-01-06T06:09:44.667Z,3.67
2023-01-06T06:10:46.049Z,3.97
2023-01-06T06:11:51.672Z,4.30
2023-01-06T06:12:53.097Z,3.07
2023-01-06T06:13:55.639Z,3.60
2023-01-06T06:14:57.035Z,4.77
2023-01-06T06:16:05.670Z,3.53
2023-01-06T06:17:07.007Z,5.17
2023-01-06T06:18:08.315Z,4.10
2023-01-06T06:19:11.872Z,4.07
2023-01-06T06:20:13.224Z,3.40
2023-01-06T06:21:15.815Z,4.20
2023-01-06T06:22:17.154Z,3.53
2023-01-06T06:23:19.759Z,4.87
2023-01-06T06:24:21.176Z,3.47
2023-01-06T06:25:22.495Z,4.00
2023-01-06T06:26:24.382Z,6.53
2023-01-06T06:27:25.645Z,4.27
2023-01-06T06:28:27.020Z,3.73
2023-01-06T06:29:28.310Z,3.10
2023-01-06T06:30:29.621Z,3.27
2023-01-06T06:31:31.054Z,3.57
2023-01-06T06:32:32.475Z,4.10
2023-01-06T06:33:33.870Z,3.47
2023-01-06T06:34:35.251Z,3.90
2023-01-06T06:35:36.601Z,3.77
2023-01-06T06:36:37.941Z,3.50
2023-01-06T06:37:39.267Z,3.50
2023-01-06T06:38:40.655Z,3.60
2023-01-06T06:39:41.967Z,3.73
2023-01-06T06:40:44.099Z,3.07
2023-01-06T06:41:45.436Z,2.93
2023-01-06T06:42:50.645Z,3.10
2023-01-06T06:43:52.184Z,2.70
2023-01-06T06:44:53.479Z,3.60
2023-01-06T06:45:54.841Z,3.53
2023-01-06T06:46:56.289Z,3.27
2023-01-06T06:47:57.635Z,4.03
2023-01-06T06:48:58.982Z,3.07
2023-01-06T06:50:00.360Z,2.87
2023-01-06T06:51:03.125Z,3.57
2023-01-06T06:52:04.560Z,2.87
2023-01-06T06:53:06.343Z,3.50
2023-01-06T06:54:07.639Z,4.57
2023-01-06T06:55:09.230Z,2.80
2023-01-06T06:56:10.909Z,3.87
2023-01-06T06:57:12.337Z,3.03
2023-01-06T06:58:13.685Z,4.63
2023-01-06T06:59:15.111Z,4.33
2023-01-06T07:00:16.583Z,3.20
2023-01-06T07:01:19.860Z,3.67
2023-01-06T07:02:21.280Z,3.93
2023-01-06T07:03:23.004Z,3.90
2023-01-06T07:04:24.415Z,3.03
2023-01-06T07:05:25.861Z,2.80
2023-01-06T07:06:28.811Z,3.47
2023-01-06T07:07:30.332Z,4.43
2023-01-06T07:08:33.236Z,3.60
2023-01-06T07:09:34.547Z,3.57
2023-01-06T07:10:36.125Z,3.67
2023-01-06T07:11:37.634Z,3.73
2023-01-06T07:12:38.997Z,4.93
2023-01-06T07:13:40.635Z,3.70
2023-01-06T07:14:41.962Z,5.73
2023-01-06T07:15:43.351Z,3.57
2023-01-06T07:16:45.932Z,3.83
2023-01-06T07:17:47.325Z,3.50
2023-01-06T07:18:48.646Z,2.93
2023-01-06T07:19:49.972Z,3.53
2023-01-06T07:20:53.719Z,3.83
2023-01-06T07:21:55.104Z,3.00
2023-01-06T07:22:56.472Z,3.03
2023-01-06T07:23:57.784Z,3.23
2023-01-06T07:24:59.202Z,2.80
2023-01-06T07:26:01.414Z,3.50
2023-01-06T07:27:02.806Z,4.93
2023-01-06T07:28:05.600Z,3.33
2023-01-06T07:29:07.190Z,2.77
2023-01-06T07:30:08.869Z,2.53
2023-01-06T07:31:10.316Z,2.90
2023-01-06T07:32:11.734Z,3.47
2023-01-06T07:33:13.117Z,2.73
2023-01-06T07:34:14.546Z,2.67
2023-01-06T07:35:16.305Z,1.70
2023-01-06T07:36:17.625Z,2.93
2023-01-06T07:37:19.014Z,2.03
2023-01-06T07:38:20.459Z,2.63
2023-01-06T07:39:22.022Z,2.00
2023-01-06T07:40:23.413Z,2.20
2023-01-06T07:41:24.727Z,2.07
2023-01-06T07:42:26.217Z,1.90
2023-01-06T07:43:27.621Z,1.93
2023-01-06T07:44:28.932Z,1.77
2023-01-06T07:45:30.245Z,2.73
2023-01-06T07:46:31.576Z,2.30
2023-01-06T07:47:33.061Z,1.87
2023-01-06T07:48:34.478Z,1.07
2023-01-06T07:49:36.095Z,1.10
2023-01-06T07:50:37.404Z,2.43
2023-01-06T07:51:38.891Z,1.30
2023-01-06T07:52:40.258Z,1.67
2023-01-06T07:53:41.724Z,1.93
2023-01-06T07:54:43.066Z,3.10
2023-01-06T07:55:50.450Z,2.00
2023-01-06T07:56:52.007Z,1.43
2023-01-06T07:57:53.596Z,1.70
2023-01-06T07:58:54.939Z,3.90
2023-01-06T07:59:56.674Z,2.40
2023-01-06T08:00:58.001Z,1.50
2023-01-06T08:01:59.380Z,2.00
2023-01-06T08:03:03.553Z,2.70
2023-01-06T08:04:05.126Z,1.40
2023-01-06T08:05:06.632Z,2.67
2023-01-06T08:06:09.179Z,1.10
2023-01-06T08:07:10.509Z,1.07
2023-01-06T08:08:12.410Z,1.70
2023-01-06T08:09:13.754Z,0.97
2023-01-06T08:10:15.328Z,1.00
2023-01-06T08:11:16.638Z,3.70
2023-01-06T08:12:18.526Z,1.33
2023-01-06T08:13:20.613Z,1.40
2023-01-06T08:14:22.164Z,1.20
2023-01-06T08:15:23.505Z,2.17
2023-01-06T08:16:25.011Z,2.23
2023-01-06T08:17:26.323Z,1.17
2023-01-06T08:18:28.648Z,1.37
2023-01-06T08:19:30.039Z,2.27
2023-01-06T08:20:31.403Z,2.40
2023-01-06T08:21:32.797Z,1.00
2023-01-06T08:22:34.115Z,1.40
2023-01-06T08:23:36.304Z,1.13
2023-01-06T08:24:37.653Z,1.73
2023-01-06T08:25:38.944Z,0.50
2023-01-06T08:26:40.286Z,3.50
2023-01-06T08:27:41.592Z,1.30
2023-01-06T08:28:44.184Z,2.30
2023-01-06T08:29:45.537Z,1.50
2023-01-06T08:30:48.490Z,1.50
2023-01-06T08:31:51.535Z,1.87
2023-01-06T08:32:58.062Z,0.77
2023-01-06T08:33:59.619Z,1.30
2023-01-06T08:35:00.932Z,2.23
2023-01-06T08:36:03.058Z,1.80
2023-01-06T08:37:04.466Z,2.50
2023-01-06T08:38:05.824Z,1.33
2023-01-06T08:39:07.651Z,1.70
2023-01-06T08:40:09.212Z,1.83
2023-01-06T08:41:10.944Z,1.87
2023-01-06T08:42:12.620Z,1.60
2023-01-06T08:43:14.267Z,3.53
2023-01-06T08:44:15.614Z,2.77
2023-01-06T08:45:17.017Z,2.33
2023-01-06T08:46:19.319Z,1.70
2023-01-06T08:47:20.663Z,2.90
2023-01-06T08:48:22.042Z,1.73
2023-01-06T08:49:23.371Z,1.37
2023-01-06T08:50:26.554Z,2.77
2023-01-06T08:51:28.692Z,1.57
2023-01-06T08:52:29.977Z,2.53
2023-01-06T08:53:31.827Z,3.50
2023-01-06T08:54:33.192Z,1.97
2023-01-06T08:55:37.516Z,3.10
2023-01-06T08:56:38.969Z,2.03
2023-01-06T08:57:40.290Z,1.43
2023-01-06T08:58:41.691Z,1.60
2023-01-06T08:59:43.252Z,2.40
2023-01-06T09:00:44.632Z,3.70
2023-01-06T09:01:46.079Z,2.17
2023-01-06T09:02:47.497Z,3.67
2023-01-06T09:03:48.835Z,3.73
2023-01-06T09:04:50.263Z,2.73
2023-01-06T09:05:52.607Z,2.53
2023-01-06T09:06:54.613Z,1.77
2023-01-06T09:07:56.588Z,5.33
2023-01-06T09:08:58.276Z,2.43
2023-01-06T09:09:59.601Z,2.40
2023-01-06T09:11:04.737Z,2.60
2023-01-06T09:12:07.503Z,2.60
2023-01-06T09:13:09.549Z,2.53
2023-01-06T09:14:11.935Z,2.73
2023-01-06T09:15:13.616Z,2.47
2023-01-06T09:16:15.053Z,1.70
2023-01-06T09:17:16.484Z,2.60
2023-01-06T09:18:17.878Z,2.43
2023-01-06T09:19:20.474Z,3.03
2023-01-06T09:20:21.806Z,2.47
2023-01-06T09:21:23.486Z,1.70
2023-01-06T09:22:24.863Z,2.53
2023-01-06T09:23:26.434Z,3.07
2023-01-06T09:24:27.831Z,2.83
2023-01-06T09:25:29.169Z,2.43
2023-01-06T09:26:30.590Z,2.53
2023-01-06T09:27:31.903Z,2.67
2023-01-06T09:28:33.357Z,2.60
2023-01-06T09:29:34.727Z,2.20
2023-01-06T09:30:36.201Z,4.03
2023-01-06T09:31:37.576Z,3.33
2023-01-06T09:32:38.956Z,3.90
2023-01-06T09:33:40.328Z,2.33
2023-01-06T09:34:41.677Z,3.37
2023-01-06T09:35:43.843Z,1.90
2023-01-06T09:36:45.300Z,2.77
2023-01-06T09:37:46.732Z,3.80
2023-01-06T09:38:48.036Z,2.10
2023-01-06T09:39:49.359Z,2.30
2023-01-06T09:40:59.937Z,3.50
2023-01-06T09:42:01.201Z,3.53
2023-01-06T09:43:19.275Z,2.23
2023-01-06T09:44:31.279Z,1.93
2023-01-06T09:45:32.594Z,2.20
2023-01-06T09:46:35.871Z,1.83
2023-01-06T09:47:40.829Z,2.10
2023-01-06T09:48:45.481Z,3.57
2023-01-06T09:50:05.393Z,2.20
2023-01-06T09:51:07.096Z,2.43
2023-01-06T09:52:23.569Z,2.63
2023-01-06T09:53:26.981Z,2.57
2023-01-06T09:54:31.434Z,4.07
2023-01-06T09:55:37.958Z,3.37
2023-01-06T09:56:40.169Z,1.63
2023-01-06T09:57:46.235Z,4.30
2023-01-06T09:58:54.526Z,1.77
2023-01-06T09:59:58.177Z,1.90
2023-01-06T10:01:01.402Z,1.67
2023-01-06T10:02:03.020Z,1.43
2023-01-06T10:03:05.447Z,5.00
2023-01-06T10:04:16.926Z,2.00
2023-01-06T10:05:19.969Z,2.00
2023-01-06T10:06:32.931Z,1.97
2023-01-06T10:07:39.326Z,1.43
2023-01-06T10:08:40.611Z,1.50
2023-01-06T10:09:47.526Z,2.23
2023-01-06T10:11:07.346Z,2.67
2023-01-06T10:12:08.651Z,1.67
2023-01-06T10:13:17.155Z,2.20
2023-01-06T10:14:24.657Z,3.03
2023-01-06T10:15:28.842Z,2.87
2023-01-06T10:16:30.287Z,2.50
2023-01-06T10:17:41.920Z,1.93
2023-01-06T10:18:43.255Z,2.00
2023-01-06T10:19:51.482Z,2.30
2023-01-06T10:21:25.316Z,2.67
2023-01-06T10:22:32.325Z,3.20
2023-01-06T10:23:53.045Z,1.23
2023-01-06T10:24:57.451Z,3.40
2023-01-06T10:26:28.449Z,1.43
2023-01-06T10:27:39.241Z,3.20
2023-01-06T10:28:44.675Z,1.93
2023-01-06T10:29:47.191Z,2.63
2023-01-06T10:30:52.097Z,0.83
2023-01-06T10:31:54.582Z,1.07
2023-01-06T10:32:56.374Z,2.47
2023-01-06T10:33:57.972Z,3.33
2023-01-06T10:34:59.998Z,1.33
2023-01-06T10:36:01.391Z,1.97
2023-01-06T10:37:02.902Z,1.60
2023-01-06T10:38:06.114Z,1.87
2023-01-06T10:39:15.188Z,1.83
2023-01-06T10:40:21.944Z,2.73
2023-01-06T10:41:23.245Z,0.77
2023-01-06T10:42:43.413Z,2.90
2023-01-06T10:43:44.801Z,2.20
2023-01-06T10:44:46.434Z,1.57
2023-01-06T10:45:48.427Z,1.00
2023-01-06T10:46:50.156Z,0.63
2023-01-06T10:47:52.243Z,1.53
2023-01-06T10:48:56.654Z,2.17
2023-01-06T10:49:58.379Z,2.63
2023-01-06T10:51:27.203Z,1.40
2023-01-06T10:52:28.943Z,1.37
2023-01-06T10:53:30.328Z,1.50
2023-01-06T10:54:33.963Z,1.40
2023-01-06T10:55:51.605Z,0.83
2023-01-06T10:56:55.387Z,1.13
2023-01-06T10:57:59.654Z,2.77
2023-01-06T10:59:08.792Z,1.83
2023-01-06T11:00:10.295Z,1.43
2023-01-06T11:01:18.062Z,1.40
2023-01-06T11:02:23.117Z,1.73
2023-01-06T11:03:33.190Z,2.43
2023-01-06T11:04:35.065Z,1.53
2023-01-06T11:05:36.473Z,2.80
2023-01-06T11:06:56.376Z,1.03
2023-01-06T11:08:03.097Z,2.80
2023-01-06T11:09:08.880Z,1.40
2023-01-06T11:10:22.544Z,1.00
2023-01-06T11:11:28.944Z,0.70
2023-01-06T11:12:31.895Z,3.70
2023-01-06T11:13:37.130Z,3.23
2023-01-06T11:14:39.076Z,2.80
2023-01-06T11:15:41.184Z,2.80
2023-01-06T11:16:42.814Z,5.33
2023-01-06T11:17:45.919Z,3.07
2023-01-06T11:19:16.787Z,3.10
2023-01-06T11:20:18.199Z,1.83
2023-01-06T11:21:20.020Z,1.63
2023-01-06T11:22:32.659Z,2.60
2023-01-06T11:23:34.838Z,2.03
2023-01-06T11:24:48.206Z,1.57
2023-01-06T11:26:00.196Z,1.60
2023-01-06T11:27:13.880Z,3.23
2023-01-06T11:28:19.475Z,1.50
2023-01-06T11:29:36.375Z,1.20
2023-01-06T11:30:48.404Z,1.00
2023-01-06T11:31:49.960Z,3.67
2023-01-06T11:32:51.439Z,2.00
2023-01-06T11:33:52.746Z,2.20
2023-01-06T11:34:56.920Z,2.83
2023-01-06T11:35:58.730Z,2.20
2023-01-06T11:37:00.203Z,2.73
2023-01-06T11:38:01.583Z,3.40
2023-01-06T11:39:02.884Z,1.33
2023-01-06T11:40:10.587Z,1.93
2023-01-06T11:41:13.064Z,2.07
2023-01-06T11:42:14.760Z,1.20
2023-01-06T11:43:17.719Z,1.00
2023-01-06T11:44:23.358Z,0.83
2023-01-06T11:45:47.936Z,0.63
2023-01-06T11:46:51.231Z,1.27
2023-01-06T11:47:52.604Z,2.50
2023-01-06T11:48:59.028Z,2.23
2023-01-06T11:50:01.167Z,1.73
2023-01-06T11:51:04.091Z,1.67
2023-01-06T11:52:07.707Z,1.17
2023-01-06T11:53:17.093Z,1.70
2023-01-06T11:54:23.391Z,1.80
2023-01-06T11:55:27.349Z,1.30
2023-01-06T11:56:28.709Z,2.13
2023-01-06T11:57:42.140Z,1.53
2023-01-06T11:58:57.799Z,1.57
2023-01-06T12:00:05.922Z,1.53
2023-01-06T12:01:09.622Z,2.50
2023-01-06T12:02:13.546Z,0.60
2023-01-06T12:03:33.083Z,0.77
2023-01-06T12:04:47.201Z,1.80
2023-01-06T12:05:54.900Z,2.03
2023-01-06T12:06:59.838Z,0.90
2023-01-06T12:08:01.992Z,3.47
2023-01-06T12:09:06.475Z,1.33
2023-01-06T12:10:17.537Z,2.50
2023-01-06T12:11:39.100Z,2.50
2023-01-06T12:12:40.539Z,0.90
2023-01-06T12:13:44.561Z,2.03
2023-01-06T12:14:47.481Z,2.50
2023-01-06T12:15:52.722Z,1.87
2023-01-06T12:16:57.373Z,1.50
2023-01-06T12:18:04.925Z,0.70
2023-01-06T12:19:13.932Z,1.33
2023-01-06T12:20:19.206Z,0.90
2023-01-06T12:21:29.018Z,1.60
2023-01-06T12:22:30.505Z,2.23
2023-01-06T12:23:37.961Z,1.60
2023-01-06T12:24:39.808Z,1.73
2023-01-06T12:25:45.314Z,1.37
2023-01-06T12:26:47.033Z,1.37
2023-01-06T12:27:53.251Z,0.93
2023-01-06T12:28:55.789Z,1.13
2023-01-06T12:30:00.524Z,1.50
2023-01-06T12:31:24.159Z,3.37
2023-01-06T12:32:29.053Z,2.27
2023-01-06T12:33:34.755Z,0.93
2023-01-06T12:34:37.799Z,1.00
2023-01-06T12:35:39.625Z,1.43
2023-01-06T12:36:44.840Z,2.60
2023-01-06T12:37:48.570Z,0.80
2023-01-06T12:38:54.755Z,1.37
2023-01-06T12:39:59.733Z,2.80
2023-01-06T12:41:14.488Z,1.03
2023-01-06T12:42:15.865Z,1.73
2023-01-06T12:43:18.371Z,1.93
2023-01-06T12:44:36.097Z,1.27
2023-01-06T12:45:57.717Z,1.67
2023-01-06T12:47:06.514Z,2.37
2023-01-06T12:48:15.706Z,0.40
2023-01-06T12:49:40.512Z,1.00
2023-01-06T12:50:51.004Z,1.40
2023-01-06T12:51:54.946Z,0.87
2023-01-06T12:53:09.989Z,1.53
2023-01-06T12:54:18.562Z,0.90
2023-01-06T12:55:24.212Z,0.67
2023-01-06T12:56:43.087Z,1.53
2023-01-06T12:57:49.355Z,0.60
2023-01-06T12:58:51.017Z,1.17
2023-01-06T12:59:52.332Z,1.13
2023-01-06T13:00:57.578Z,1.13
2023-01-06T13:02:14.600Z,0.80
2023-01-06T13:03:18.790Z,1.13
2023-01-06T13:04:26.280Z,2.77
2023-01-06T13:05:37.293Z,2.50
2023-01-06T13:06:47.832Z,1.83
2023-01-06T13:07:49.442Z,0.70
2023-01-06T13:09:03.079Z,0.50
2023-01-06T13:10:13.670Z,0.70
2023-01-06T13:11:24.143Z,1.03
2023-01-06T13:12:44.314Z,1.37
2023-01-06T13:13:56.250Z,0.37
2023-01-06T13:15:09.509Z,0.40
2023-01-06T13:16:25.762Z,1.00
2023-01-06T13:17:46.862Z,1.63
2023-01-06T13:19:03.671Z,2.00
2023-01-06T13:20:08.041Z,0.60
2023-01-06T13:21:12.293Z,0.50
2023-01-06T13:22:26.781Z,0.50
2023-01-06T13:23:38.636Z,0.60
2023-01-06T13:25:00.392Z,0.90
2023-01-06T13:26:13.458Z,1.13
2023-01-06T13:27:21.060Z,0.50
2023-01-06T13:28:32.195Z,0.77
2023-01-06T13:29:33.713Z,0.60
2023-01-06T13:30:53.485Z,1.80
2023-01-06T13:32:00.928Z,0.53
2023-01-06T13:33:21.175Z,0.67
2023-01-06T13:34:40.857Z,1.67
2023-01-06T13:35:48.082Z,1.17
2023-01-06T13:37:01.684Z,1.53
2023-01-06T13:38:26.866Z,1.03
2023-01-06T13:39:38.207Z,1.03
2023-01-06T13:40:40.275Z,0.40
2023-01-06T13:41:44.714Z,1.93
2023-01-06T13:42:51.116Z,2.70
2023-01-06T13:43:53.950Z,0.93
2023-01-06T13:44:55.350Z,0.60
2023-01-06T13:46:01.767Z,1.00
2023-01-06T13:47:06.025Z,1.03
2023-01-06T13:48:09.042Z,1.63
2023-01-06T13:49:11.552Z,1.57
2023-01-06T13:50:14.688Z,1.00
2023-01-06T13:51:17.543Z,0.60
2023-01-06T13:52:21.766Z,2.40
2023-01-06T13:53:23.994Z,0.97
2023-01-06T13:54:40.672Z,0.53
2023-01-06T13:55:42.051Z,1.60
2023-01-06T13:56:43.370Z,0.43
2023-01-06T13:57:46.195Z,1.00
2023-01-06T13:58:49.059Z,0.70
2023-01-06T13:59:54.006Z,1.10
2023-01-06T14:01:07.593Z,1.43
2023-01-06T14:02:29.083Z,2.33
2023-01-06T14:03:30.670Z,1.83
2023-01-06T14:04:42.732Z,1.70
2023-01-06T14:05:44.140Z,0.83
2023-01-06T14:06:46.453Z,1.37
2023-01-06T14:07:52.075Z,0.80
2023-01-06T14:08:57.056Z,2.30
2023-01-06T14:09:58.661Z,0.93
2023-01-06T14:11:02.294Z,1.50
2023-01-06T14:12:10.386Z,2.27
2023-01-06T14:13:20.718Z,4.13
2023-01-06T14:14:28.291Z,4.33
2023-01-06T14:15:31.467Z,3.37
2023-01-06T14:16:49.723Z,2.07
2023-01-06T14:17:51.147Z,4.20
2023-01-06T14:19:04.011Z,4.37
2023-01-06T14:20:06.190Z,4.20
2023-01-06T14:21:10.607Z,5.83
2023-01-06T14:22:16.476Z,4.93
2023-01-06T14:23:22.790Z,5.07